createdAt,value
2023-11-28T00:01:53.664Z,40.00
2023-11-28T00:04:21.102Z,35.97
2023-11-28T00:06:52.902Z,28.25
2023-11-28T00:09:25.283Z,23.58
2023-11-28T00:11:55.048Z,27.08
2023-11-28T00:14:22.285Z,35.83
2023-11-28T00:16:49.689Z,31.10
2023-11-28T00:19:17.101Z,31.85
2023-11-28T00:21:47.423Z,29.95
2023-11-28T00:24:17.090Z,37.15
2023-11-28T00:26:47.211Z,47.40
2023-11-28T00:31:43.598Z,47.78
2023-11-28T00:34:12.121Z,47.78
2023-11-28T00:36:39.391Z,41.13
2023-11-28T00:39:06.883Z,42.22
2023-11-28T00:41:34.465Z,39.78
2023-11-28T00:44:02.410Z,42.03
2023-11-28T00:46:29.649Z,37.20
2023-11-28T00:48:57.958Z,31.13
2023-11-28T00:51:25.188Z,23.13
2023-11-28T00:53:52.183Z,29.98
2023-11-28T00:56:20.466Z,15.30
2023-11-28T00:58:48.706Z,28.45
2023-11-28T01:01:17.576Z,25.95
2023-11-28T01:03:45.793Z,32.90
2023-11-28T01:06:13.090Z,42.40
2023-11-28T01:08:40.029Z,32.13
2023-11-28T01:11:07.469Z,37.08
2023-11-28T01:13:34.470Z,40.13
2023-11-28T01:16:01.582Z,48.90
2023-11-28T01:18:29.329Z,55.38
2023-11-28T01:20:56.287Z,63.42
2023-11-28T01:23:23.286Z,60.75
2023-11-28T01:25:51.368Z,60.53
2023-11-28T01:28:18.465Z,64.03
2023-11-28T01:30:45.404Z,62.85
2023-11-28T01:33:13.440Z,69.95
2023-11-28T01:35:40.789Z,83.30
2023-11-28T01:38:07.820Z,91.07
2023-11-28T01:40:35.064Z,84.45
2023-11-28T01:43:02.029Z,90.38
2023-11-28T01:45:28.992Z,88.72
2023-11-28T01:47:57.722Z,89.38
2023-11-28T01:50:25.090Z,85.40
2023-11-28T01:52:52.686Z,84.10
2023-11-28T01:55:19.780Z,86.57
2023-11-28T01:57:48.496Z,89.20
2023-11-28T02:00:16.113Z,85.85
2023-11-28T02:02:43.308Z,92.35
2023-11-28T02:05:10.995Z,88.13
2023-11-28T02:07:38.159Z,90.72
2023-11-28T02:10:05.419Z,89.82
2023-11-28T02:12:32.390Z,91.45
2023-11-28T02:14:59.526Z,93.70
2023-11-28T02:17:26.680Z,86.40
2023-11-28T02:19:59.069Z,93.53
2023-11-28T02:22:27.575Z,92.70
2023-11-28T02:24:58.270Z,86.60
2023-11-28T02:27:25.300Z,88.47
2023-11-28T02:29:52.870Z,92.57
2023-11-28T02:32:20.756Z,79.80
2023-11-28T02:34:47.688Z,79.10
2023-11-28T02:37:14.718Z,74.03
2023-11-28T02:39:41.628Z,85.15
2023-11-28T02:42:08.634Z,76.15
2023-11-28T02:44:35.911Z,74.15
2023-11-28T02:47:03.468Z,80.18
2023-11-28T02:49:30.455Z,82.82
2023-11-28T02:51:57.447Z,72.10
2023-11-28T02:54:24.288Z,77.13
2023-11-28T02:56:51.215Z,82.80
2023-11-28T02:59:18.143Z,80.53
2023-11-28T03:01:45.300Z,74.25
2023-11-28T03:04:12.349Z,74.03
2023-11-28T03:06:39.320Z,79.18
2023-11-28T03:09:07.453Z,79.30
2023-11-28T03:11:34.652Z,75.72
2023-11-28T03:14:01.620Z,79.25
2023-11-28T03:16:28.729Z,78.80
2023-11-28T03:18:55.658Z,74.45
2023-11-28T03:21:22.679Z,77.07
2023-11-28T03:23:49.621Z,71.28
2023-11-28T03:26:16.886Z,75.38
2023-11-28T03:28:43.878Z,70.68
2023-11-28T03:31:11.864Z,68.68
2023-11-28T03:33:38.845Z,64.22
2023-11-28T03:36:06.139Z,74.13
2023-11-28T03:38:33.570Z,65.13
2023-11-28T03:41:00.793Z,66.55
2023-11-28T03:43:27.820Z,64.78
2023-11-28T03:45:55.080Z,64.00
2023-11-28T03:48:22.060Z,61.47
2023-11-28T03:50:49.077Z,62.83
2023-11-28T03:53:16.074Z,58.67
2023-11-28T03:55:43.117Z,56.83
2023-11-28T03:58:10.065Z,54.55
2023-11-28T04:00:37.197Z,53.65
2023-11-28T04:03:04.334Z,55.20
2023-11-28T04:05:31.471Z,54.53
2023-11-28T04:07:58.337Z,48.22
2023-11-28T04:10:25.285Z,47.38
2023-11-28T04:12:52.934Z,51.35
2023-11-28T04:15:19.987Z,45.70
2023-11-28T04:17:47.022Z,50.38
2023-11-28T04:20:14.331Z,50.63
2023-11-28T04:22:41.635Z,49.90
2023-11-28T04:25:09.027Z,45.65
2023-11-28T04:27:36.221Z,48.75
2023-11-28T04:30:04.017Z,45.85
2023-11-28T04:32:32.732Z,48.53
2023-11-28T04:34:59.906Z,43.38
2023-11-28T04:37:26.855Z,44.42
2023-11-28T04:39:55.662Z,39.80
2023-11-28T04:42:22.698Z,40.67
2023-11-28T04:44:49.801Z,44.95
2023-11-28T04:47:17.642Z,43.08
2023-11-28T04:49:44.858Z,41.33
2023-11-28T04:52:11.900Z,35.17
2023-11-28T04:54:38.816Z,39.58
2023-11-28T04:57:06.591Z,41.05
2023-11-28T04:59:33.693Z,31.98
2023-11-28T05:02:00.726Z,36.50
2023-11-28T05:04:28.083Z,34.28
2023-11-28T05:06:55.005Z,31.55
2023-11-28T05:09:22.066Z,32.83
2023-11-28T05:11:48.979Z,35.55
2023-11-28T05:14:16.103Z,50.22
2023-11-28T05:16:48.558Z,33.13
2023-11-28T05:19:21.875Z,34.17
2023-11-28T05:21:48.794Z,31.88
2023-11-28T05:24:15.808Z,33.70
2023-11-28T05:26:42.842Z,36.60
2023-11-28T05:29:10.021Z,31.50
2023-11-28T05:31:37.124Z,29.63
2023-11-28T05:34:04.335Z,33.55
2023-11-28T05:36:31.861Z,28.10
2023-11-28T05:38:58.876Z,29.40
2023-11-28T05:41:25.936Z,30.52
2023-11-28T05:43:54.668Z,30.85
2023-11-28T05:46:22.398Z,28.80
2023-11-28T05:48:49.996Z,32.70
2023-11-28T05:51:17.392Z,31.55
2023-11-28T05:53:44.774Z,29.60
2023-11-28T05:56:13.667Z,31.85
2023-11-28T05:58:40.906Z,29.23
2023-11-28T06:01:08.204Z,28.88
2023-11-28T06:03:36.041Z,33.50
2023-11-28T06:06:05.314Z,30.08
2023-11-28T06:08:32.258Z,32.92
2023-11-28T06:10:59.580Z,36.47
2023-11-28T06:13:26.537Z,37.67
2023-11-28T06:15:53.543Z,35.22
2023-11-28T06:18:21.634Z,36.70
2023-11-28T06:20:48.551Z,31.80
2023-11-28T06:23:18.698Z,26.52
2023-11-28T06:25:47.469Z,24.60
2023-11-28T06:28:14.505Z,28.65
2023-11-28T06:30:41.417Z,29.50
2023-11-28T06:33:08.426Z,32.88
2023-11-28T06:35:39.454Z,32.88
2023-11-28T06:38:06.507Z,32.08
2023-11-28T06:40:34.195Z,35.45
2023-11-28T06:43:01.344Z,35.78
2023-11-28T06:45:28.500Z,45.03
2023-11-28T06:47:55.774Z,45.65
2023-11-28T06:50:22.923Z,41.83
2023-11-28T06:52:50.039Z,41.85
2023-11-28T06:55:20.105Z,45.05
2023-11-28T06:57:49.282Z,48.22
2023-11-28T07:00:16.893Z,42.85
2023-11-28T07:02:44.154Z,48.78
2023-11-28T07:08:21.203Z,46.92
2023-11-28T07:10:48.397Z,40.70
2023-11-28T07:13:15.847Z,39.03
2023-11-28T07:15:43.084Z,46.58
2023-11-28T07:18:12.190Z,40.92
2023-11-28T07:20:39.780Z,52.28
2023-11-28T07:23:07.718Z,35.95
2023-11-28T07:25:37.384Z,40.92
2023-11-28T07:28:05.440Z,37.85
2023-11-28T07:30:35.888Z,37.45
2023-11-28T07:33:05.038Z,36.85
2023-11-28T07:35:31.984Z,38.95
2023-11-28T07:37:59.225Z,39.00
2023-11-28T07:40:27.789Z,31.83
2023-11-28T07:42:57.374Z,38.60
2023-11-28T07:45:24.642Z,34.80
2023-11-28T07:47:54.884Z,34.25
2023-11-28T07:50:34.631Z,34.45
2023-11-28T07:53:02.287Z,33.75
2023-11-28T07:55:29.338Z,28.02
2023-11-28T07:57:56.354Z,30.60
2023-11-28T08:00:27.282Z,28.67
2023-11-28T08:02:54.407Z,30.25
2023-11-28T08:05:21.536Z,29.80
2023-11-28T08:07:48.672Z,29.55
2023-11-28T08:10:15.706Z,28.23
2023-11-28T08:12:43.001Z,28.27
2023-11-28T08:15:10.365Z,30.38
2023-11-28T08:17:41.633Z,29.67
2023-11-28T08:20:09.765Z,28.90
2023-11-28T08:22:39.413Z,26.77
2023-11-28T08:25:06.767Z,28.00
2023-11-28T08:27:33.724Z,32.00
2023-11-28T08:30:04.897Z,30.75
2023-11-28T08:32:35.432Z,35.53
2023-11-28T08:35:02.830Z,38.13
2023-11-28T08:37:29.765Z,30.40
2023-11-28T08:39:56.985Z,37.60
2023-11-28T08:42:24.066Z,40.80
2023-11-28T08:44:51.163Z,39.35
2023-11-28T08:47:18.313Z,36.40
2023-11-28T08:49:48.622Z,41.00
2023-11-28T08:52:15.811Z,33.53
2023-11-28T08:54:46.400Z,36.80
2023-11-28T08:57:16.840Z,32.58
2023-11-28T08:59:44.451Z,35.88
2023-11-28T09:02:11.883Z,36.80
2023-11-28T09:04:39.149Z,33.05
2023-11-28T09:07:06.388Z,36.78
2023-11-28T09:09:33.475Z,39.20
2023-11-28T09:12:00.591Z,45.38
2023-11-28T09:14:27.648Z,55.45
2023-11-28T09:16:54.964Z,44.75
2023-11-28T09:19:25.194Z,55.25
2023-11-28T09:24:19.113Z,49.67
2023-11-28T09:26:46.446Z,55.70
2023-11-28T09:29:18.818Z,53.50
2023-11-28T09:31:46.137Z,53.42
2023-11-28T09:34:13.147Z,52.20
2023-11-28T09:36:40.393Z,46.50
2023-11-28T09:39:10.974Z,40.78
2023-11-28T09:41:46.190Z,31.73
2023-11-28T09:44:26.978Z,37.13
2023-11-28T09:46:58.297Z,32.83
2023-11-28T09:49:31.525Z,29.42
2023-11-28T09:52:00.343Z,30.88
2023-11-28T09:54:29.618Z,28.38
2023-11-28T09:56:57.175Z,29.55
2023-11-28T09:59:30.856Z,28.90
2023-11-28T10:02:01.780Z,28.65
2023-11-28T10:04:29.047Z,29.52
2023-11-28T10:06:59.763Z,29.35
2023-11-28T10:09:27.118Z,26.33
2023-11-28T10:11:56.766Z,23.77
2023-11-28T10:14:23.940Z,27.92
2023-11-28T10:16:52.858Z,35.38
2023-11-28T10:19:20.009Z,29.85
2023-11-28T10:21:47.636Z,30.67
2023-11-28T10:24:15.440Z,30.63
2023-11-28T10:26:42.326Z,29.48
2023-11-28T10:29:10.001Z,33.80
2023-11-28T10:31:38.800Z,26.73
2023-11-28T10:34:10.208Z,30.17
2023-11-28T10:36:47.682Z,23.98
2023-11-28T10:39:17.053Z,21.52
2023-11-28T10:41:44.178Z,22.77
2023-11-28T10:44:11.391Z,20.83
2023-11-28T10:46:40.916Z,19.25
2023-11-28T10:49:08.412Z,26.60
2023-11-28T10:51:36.895Z,17.77
2023-11-28T10:54:19.039Z,17.85
2023-11-28T10:56:54.441Z,17.25
2023-11-28T11:01:49.391Z,15.98
2023-11-28T11:04:16.577Z,16.10
2023-11-28T11:06:43.683Z,12.80
2023-11-28T11:09:13.002Z,14.02
2023-11-28T11:11:42.468Z,11.68
2023-11-28T11:14:19.279Z,12.48
2023-11-28T11:17:14.908Z,8.60
2023-11-28T11:19:48.970Z,7.85
2023-11-28T11:22:28.188Z,6.78
2023-11-28T11:25:01.799Z,6.82
2023-11-28T11:27:30.028Z,5.60
2023-11-28T11:29:57.202Z,6.28
2023-11-28T11:32:25.090Z,6.80
2023-11-28T11:34:52.818Z,6.88
2023-11-28T11:37:32.210Z,8.43
2023-11-28T11:40:03.588Z,8.48
2023-11-28T11:42:35.133Z,9.18
2023-11-28T11:45:08.232Z,9.00
2023-11-28T11:47:40.654Z,9.90
2023-11-28T11:50:09.645Z,13.00
2023-11-28T11:52:39.914Z,12.38
2023-11-28T11:57:34.437Z,10.95
2023-11-28T12:00:01.720Z,11.20
2023-11-28T12:02:45.287Z,11.45
2023-11-28T12:05:14.193Z,13.02
2023-11-28T12:07:42.199Z,10.35
2023-11-28T12:10:11.290Z,17.63
2023-11-28T12:12:41.921Z,10.88
2023-11-28T12:15:13.684Z,8.10
2023-11-28T12:17:42.449Z,8.13
2023-11-28T12:20:10.845Z,7.45
2023-11-28T12:22:38.415Z,6.88
2023-11-28T12:25:05.830Z,6.22
2023-11-28T12:27:33.537Z,6.38
2023-11-28T12:30:05.021Z,6.40
2023-11-28T12:32:32.156Z,8.52
2023-11-28T12:34:59.677Z,7.50
2023-11-28T12:37:31.003Z,13.73
2023-11-28T12:39:58.998Z,6.75
2023-11-28T12:42:27.317Z,7.55
2023-11-28T12:44:58.531Z,6.68
2023-11-28T12:47:27.497Z,6.13
2023-11-28T12:49:54.656Z,6.00
2023-11-28T12:52:28.586Z,6.88
2023-11-28T12:54:56.437Z,5.15
2023-11-28T12:57:26.759Z,5.78
2023-11-28T12:59:53.908Z,6.10
2023-11-28T13:02:21.249Z,6.43
2023-11-28T13:04:48.746Z,7.47
2023-11-28T13:07:26.722Z,6.43
2023-11-28T13:10:01.476Z,5.90
2023-11-28T13:12:28.843Z,4.57
2023-11-28T13:14:56.316Z,4.60
2023-11-28T13:17:24.045Z,4.82
2023-11-28T13:19:54.378Z,5.75
2023-11-28T13:22:21.470Z,5.53
2023-11-28T13:24:52.168Z,6.13
2023-11-28T13:27:19.961Z,6.00
2023-11-28T13:29:48.042Z,5.32
2023-11-28T13:32:16.214Z,6.53
2023-11-28T13:34:51.012Z,6.57
2023-11-28T13:37:28.605Z,6.22
2023-11-28T13:39:56.117Z,6.25
2023-11-28T13:42:24.151Z,6.63
2023-11-28T13:44:52.157Z,5.85
2023-11-28T13:47:23.430Z,5.00
2023-11-28T13:49:52.883Z,5.25
2023-11-28T13:52:20.149Z,5.55
2023-11-28T13:54:49.945Z,6.00
2023-11-28T13:57:21.259Z,6.38
2023-11-28T13:59:51.548Z,8.23
2023-11-28T14:02:22.740Z,7.93
2023-11-28T14:04:51.880Z,7.32
2023-11-28T14:07:18.838Z,9.18
2023-11-28T14:09:47.040Z,7.40
2023-11-28T14:12:15.412Z,8.40
2023-11-28T14:14:50.623Z,8.65
2023-11-28T14:17:23.775Z,6.63
2023-11-28T14:19:51.132Z,9.52
2023-11-28T14:22:18.270Z,7.78
2023-11-28T14:24:45.231Z,9.40
2023-11-28T14:27:12.320Z,8.75
2023-11-28T14:29:39.279Z,7.82
2023-11-28T14:32:07.569Z,7.43
2023-11-28T14:34:35.074Z,8.68
2023-11-28T14:37:02.854Z,9.52
2023-11-28T14:39:35.898Z,10.15
2023-11-28T14:42:04.161Z,12.30
2023-11-28T14:44:31.731Z,14.15
2023-11-28T14:46:58.935Z,15.20
2023-11-28T14:49:26.018Z,15.35
2023-11-28T14:51:53.294Z,11.15
2023-11-28T14:54:21.042Z,14.10
2023-11-28T14:56:48.316Z,14.07
2023-11-28T14:59:16.395Z,14.02
2023-11-28T15:01:44.106Z,14.20
2023-11-28T15:04:11.249Z,14.95
2023-11-28T15:06:40.510Z,11.55
2023-11-28T15:09:07.962Z,9.85
2023-11-28T15:11:35.480Z,10.95
2023-11-28T15:14:03.590Z,11.32
2023-11-28T15:16:35.830Z,13.80
2023-11-28T15:19:06.177Z,12.98
2023-11-28T15:21:40.018Z,19.10
2023-11-28T15:24:23.273Z,22.02
2023-11-28T15:29:18.319Z,27.27
2023-11-28T15:31:45.373Z,25.60
2023-11-28T15:34:12.504Z,25.80
2023-11-28T15:36:39.458Z,27.73
2023-11-28T15:39:15.576Z,24.90
2023-11-28T15:41:42.656Z,26.67
2023-11-28T15:44:10.525Z,28.02
2023-11-28T15:46:37.511Z,27.88
2023-11-28T15:49:04.522Z,26.13
2023-11-28T15:51:37.760Z,32.67
2023-11-28T15:54:08.315Z,29.48
2023-11-28T15:56:36.012Z,29.17
2023-11-28T15:59:04.389Z,39.90
2023-11-28T16:01:32.393Z,31.90
2023-11-28T16:03:59.711Z,35.42
2023-11-28T16:06:26.704Z,32.47
2023-11-28T16:08:53.779Z,40.72
2023-11-28T16:11:21.202Z,29.08
2023-11-28T16:13:48.360Z,29.35
2023-11-28T16:16:16.471Z,29.10
2023-11-28T16:18:43.781Z,30.92
2023-11-28T16:21:11.512Z,32.90
2023-11-28T16:23:38.767Z,36.08
2023-11-28T16:26:06.198Z,38.20
2023-11-28T16:28:33.595Z,40.55
2023-11-28T16:31:00.738Z,36.88
2023-11-28T16:33:27.915Z,39.08
2023-11-28T16:35:59.563Z,34.55
2023-11-28T16:38:26.733Z,36.20
2023-11-28T16:40:54.003Z,35.17
2023-11-28T16:43:21.070Z,34.38
2023-11-28T16:45:50.194Z,31.67
2023-11-28T16:48:18.655Z,37.30
2023-11-28T16:50:45.731Z,34.25
2023-11-28T16:53:13.638Z,32.30
2023-11-28T16:55:40.791Z,34.03
2023-11-28T16:58:08.145Z,34.10
2023-11-28T17:00:36.949Z,31.42
2023-11-28T17:03:04.288Z,34.33
2023-11-28T17:05:32.300Z,47.45
2023-11-28T17:08:01.573Z,32.25
2023-11-28T17:10:32.908Z,30.08
2023-11-28T17:12:59.916Z,29.48
2023-11-28T17:15:27.358Z,32.97
2023-11-28T17:17:54.365Z,29.35
2023-11-28T17:20:22.354Z,34.10
2023-11-28T17:22:49.620Z,33.08
2023-11-28T17:25:16.965Z,30.80
2023-11-28T17:27:44.220Z,34.75
2023-11-28T17:30:11.684Z,32.28
2023-11-28T17:32:39.603Z,29.40
2023-11-28T17:35:13.600Z,34.08
2023-11-28T17:37:43.272Z,32.10
2023-11-28T17:40:10.519Z,33.92
2023-11-28T17:42:38.049Z,34.28
2023-11-28T17:45:06.169Z,35.60
2023-11-28T17:47:35.633Z,34.53
2023-11-28T17:50:06.043Z,32.03
2023-11-28T17:52:33.363Z,32.47
2023-11-28T17:55:01.260Z,32.28
2023-11-28T17:57:28.486Z,38.78
2023-11-28T17:59:55.382Z,32.60
2023-11-28T18:02:22.636Z,36.45
2023-11-28T18:04:49.890Z,35.67
2023-11-28T18:07:20.230Z,38.92
2023-11-28T18:09:47.471Z,38.20
2023-11-28T18:12:14.585Z,38.08
2023-11-28T18:14:41.818Z,36.47
2023-11-28T18:17:08.861Z,45.92
2023-11-28T18:19:35.874Z,42.22
2023-11-28T18:22:03.167Z,48.80
2023-11-28T18:24:30.226Z,39.40
2023-11-28T18:27:04.586Z,43.78
2023-11-28T18:29:32.074Z,42.33
2023-11-28T18:32:02.813Z,36.97
2023-11-28T18:34:39.512Z,42.05
2023-11-28T18:37:07.395Z,40.47
2023-11-28T18:39:34.823Z,39.70
2023-11-28T18:42:02.693Z,42.72
2023-11-28T18:44:30.144Z,37.95
2023-11-28T18:47:05.035Z,50.53
2023-11-28T18:49:44.397Z,44.53
2023-11-28T18:52:12.079Z,49.53
2023-11-28T18:54:42.717Z,45.13
2023-11-28T18:57:12.028Z,49.63
2023-11-28T18:59:40.535Z,53.97
2023-11-28T19:02:10.433Z,49.55
2023-11-28T19:04:42.073Z,50.55
2023-11-28T19:07:12.197Z,47.33
2023-11-28T19:09:42.976Z,47.75
2023-11-28T19:12:10.422Z,62.92
2023-11-28T19:14:40.024Z,48.72
2023-11-28T19:17:07.103Z,47.35
2023-11-28T19:19:37.882Z,41.47
2023-11-28T19:22:05.982Z,43.40
2023-11-28T19:24:35.800Z,40.75
2023-11-28T19:27:06.030Z,42.38
2023-11-28T19:29:33.144Z,42.47
2023-11-28T19:32:00.474Z,39.53
2023-11-28T19:34:30.037Z,45.13
2023-11-28T19:36:58.050Z,46.28
2023-11-28T19:39:26.140Z,46.20
2023-11-28T19:42:21.326Z,45.67
2023-11-28T19:45:00.782Z,52.20
2023-11-28T19:47:28.077Z,44.92
2023-11-28T19:49:58.836Z,49.45
2023-11-28T19:52:27.852Z,52.80
2023-11-28T19:54:54.829Z,48.05
2023-11-28T19:57:26.692Z,48.70
2023-11-28T19:59:57.832Z,46.58
2023-11-28T20:02:36.424Z,48.22
2023-11-28T20:05:06.275Z,46.20
2023-11-28T20:07:34.648Z,49.38
2023-11-28T20:10:06.785Z,54.20
2023-11-28T20:12:34.571Z,45.83
2023-11-28T20:15:01.872Z,20.65
2023-11-28T20:17:32.246Z,24.08
2023-11-28T20:20:01.346Z,35.65
2023-11-28T20:22:28.395Z,37.53
2023-11-28T20:24:55.382Z,40.42
2023-11-28T20:27:22.797Z,36.22
2023-11-28T20:29:49.876Z,39.47
2023-11-28T20:32:16.881Z,40.55
2023-11-28T20:34:44.193Z,34.85
2023-11-28T20:37:18.841Z,29.90
2023-11-28T20:40:02.817Z,28.17
2023-11-28T20:42:30.044Z,27.27
2023-11-28T20:44:57.470Z,32.85
2023-11-28T20:47:24.658Z,32.15
2023-11-28T20:49:51.846Z,27.55
2023-11-28T20:52:19.167Z,25.38
2023-11-28T20:54:46.194Z,17.92
2023-11-28T20:57:13.195Z,10.30
2023-11-28T20:59:40.365Z,9.52
2023-11-28T21:02:08.461Z,12.75
2023-11-28T21:04:36.091Z,16.42
2023-11-28T21:07:03.302Z,17.08
2023-11-28T21:09:31.855Z,20.45
2023-11-28T21:11:58.890Z,19.38
2023-11-28T21:14:25.866Z,19.38
2023-11-28T21:16:52.897Z,21.10
2023-11-28T21:19:19.933Z,17.02
2023-11-28T21:21:46.932Z,17.55
2023-11-28T21:24:15.577Z,16.35
2023-11-28T21:26:44.379Z,14.98
2023-11-28T21:29:11.558Z,16.33
2023-11-28T21:31:38.586Z,16.92
2023-11-28T21:34:05.593Z,19.65
2023-11-28T21:36:37.198Z,17.70
2023-11-28T21:39:05.559Z,16.23
2023-11-28T21:41:32.731Z,17.15
2023-11-28T21:44:00.317Z,19.38
2023-11-28T21:46:27.329Z,12.38
2023-11-28T21:48:58.935Z,11.45
2023-11-28T21:51:25.938Z,11.05
2023-11-28T21:53:52.952Z,12.55
2023-11-28T21:56:19.940Z,11.85
2023-11-28T21:58:49.489Z,12.25
2023-11-28T22:01:17.984Z,13.20
2023-11-28T22:03:47.551Z,10.80
2023-11-28T22:06:14.787Z,9.07
2023-11-28T22:08:53.804Z,10.07
2023-11-28T22:11:26.533Z,9.88
2023-11-28T22:13:56.611Z,9.52
2023-11-28T22:16:23.569Z,8.20
2023-11-28T22:18:50.696Z,7.43
2023-11-28T22:21:21.553Z,10.75
2023-11-28T22:23:50.089Z,12.77
2023-11-28T22:26:16.988Z,8.40
2023-11-28T22:28:43.956Z,8.23
2023-11-28T22:31:11.035Z,7.25
2023-11-28T22:33:38.031Z,8.52
2023-11-28T22:36:06.200Z,7.03
2023-11-28T22:38:33.252Z,6.00
2023-11-28T22:41:00.199Z,8.07
2023-11-28T22:43:27.244Z,6.57
2023-11-28T22:45:54.448Z,6.15
2023-11-28T22:48:22.268Z,7.22
2023-11-28T22:50:49.494Z,6.75
2023-11-28T22:53:24.794Z,6.63
